Time;durP1;ratioP1;P1;durP2;ratioP2;P2;SDS_P1;SDS_P2;PMS_P1;PMS_P2;Temp;Humidity;BMP_temperature;BMP_pressure;BME280_temperature;BME280_humidity;BME280_pressure;Samples;Min_cycle;Max_cycle;Signal;HPM_P1;HPM_P2
2023/09/07 00:00:21;;;;;;;6.63;3.20;;;17.30;99.90;;;;;;5059576;28;20250;-79
2023/09/07 00:02:46;;;;;;;5.17;3.60;;;17.20;99.90;;;;;;5060481;28;20210;-79
2023/09/07 00:05:13;;;;;;;9.53;3.73;;;17.30;99.90;;;;;;5058254;28;20183;-79
2023/09/07 00:07:39;;;;;;;6.80;3.57;;;17.20;99.90;;;;;;5058530;28;20186;-79
2023/09/07 00:10:05;;;;;;;7.30;4.50;;;17.20;99.90;;;;;;5057856;28;20184;-79
2023/09/07 00:12:30;;;;;;;3.90;3.50;;;17.20;99.90;;;;;;5057820;28;20271;-79
2023/09/07 00:14:58;;;;;;;6.23;3.67;;;17.20;99.90;;;;;;5058356;28;20180;-79
2023/09/07 00:17:23;;;;;;;5.23;3.47;;;17.10;99.90;;;;;;5058208;28;20206;-80
2023/09/07 00:19:50;;;;;;;5.50;3.63;;;17.10;99.90;;;;;;5060495;28;20171;-78
2023/09/07 00:22:17;;;;;;;3.93;3.43;;;17.00;99.90;;;;;;5059408;28;20205;-80
2023/09/07 00:24:43;;;;;;;7.83;4.27;;;17.10;99.90;;;;;;5059285;28;20619;-80
2023/09/07 00:27:11;;;;;;;8.30;3.93;;;17.00;99.90;;;;;;5058224;28;20258;-79
2023/09/07 00:29:37;;;;;;;6.27;3.67;;;17.00;99.90;;;;;;5058297;28;20211;-79
2023/09/07 00:32:03;;;;;;;3.43;3.10;;;16.90;99.90;;;;;;5059712;28;20230;-80
2023/09/07 00:34:28;;;;;;;9.40;3.50;;;16.90;99.90;;;;;;5057928;28;20217;-79
2023/09/07 00:36:54;;;;;;;4.27;3.57;;;16.90;99.90;;;;;;5059456;28;20167;-79
2023/09/07 00:39:19;;;;;;;4.20;3.80;;;16.90;99.90;;;;;;5059736;28;20171;-79
2023/09/07 00:41:45;;;;;;;8.73;3.70;;;16.90;99.90;;;;;;5058240;28;20545;-79
2023/09/07 00:44:10;;;;;;;5.57;3.37;;;16.90;99.90;;;;;;5058894;28;20230;-79
2023/09/07 00:46:36;;;;;;;5.73;3.23;;;16.80;99.90;;;;;;5056811;28;20172;-79
2023/09/07 00:49:04;;;;;;;4.37;3.33;;;16.80;99.90;;;;;;5058127;28;20175;-79
2023/09/07 00:51:30;;;;;;;6.33;3.37;;;16.80;99.90;;;;;;5059182;28;20295;-79
2023/09/07 00:53:59;;;;;;;6.53;3.47;;;16.70;99.90;;;;;;5057854;28;20178;-79
2023/09/07 00:56:26;;;;;;;5.87;3.10;;;16.80;99.90;;;;;;5058990;28;20252;-79
2023/09/07 00:58:54;;;;;;;9.70;3.80;;;16.70;99.90;;;;;;5059105;28;20172;-79
2023/09/07 01:01:21;;;;;;;8.77;3.50;;;16.70;99.90;;;;;;5059505;28;20163;-79
2023/09/07 01:03:47;;;;;;;8.33;3.67;;;16.70;99.90;;;;;;5057637;28;20179;-79
2023/09/07 01:06:19;;;;;;;4.90;3.23;;;16.60;99.90;;;;;;5057808;28;20278;-79
2023/09/07 01:08:48;;;;;;;4.73;3.50;;;16.60;99.90;;;;;;5059679;28;20180;-79
2023/09/07 01:11:20;;;;;;;5.23;3.30;;;16.60;99.90;;;;;;5060095;28;20612;-79
2023/09/07 01:13:46;;;;;;;7.97;3.17;;;16.60;99.90;;;;;;5059422;28;20156;-79
2023/09/07 01:16:13;;;;;;;6.97;3.90;;;16.50;99.90;;;;;;5059925;28;20186;-79
2023/09/07 01:18:39;;;;;;;11.97;3.57;;;16.50;99.90;;;;;;5060581;28;20183;-79
2023/09/07 01:21:09;;;;;;;6.03;3.17;;;16.40;99.90;;;;;;5061122;28;20328;-79
2023/09/07 01:23:42;;;;;;;4.43;3.20;;;16.50;99.90;;;;;;5060050;28;20191;-79
2023/09/07 01:26:09;;;;;;;6.73;3.37;;;16.40;99.90;;;;;;5059537;28;20187;-79
2023/09/07 01:28:36;;;;;;;3.20;2.90;;;16.40;99.90;;;;;;5061166;28;20168;-79
2023/09/07 01:31:02;;;;;;;6.03;3.33;;;16.30;99.90;;;;;;5059574;28;20191;-79
2023/09/07 01:33:28;;;;;;;4.07;3.00;;;16.30;99.90;;;;;;5059957;28;20196;-79
2023/09/07 01:35:53;;;;;;;7.47;3.83;;;16.30;99.90;;;;;;5060011;28;20628;-79
2023/09/07 01:38:19;;;;;;;4.00;3.10;;;16.20;99.90;;;;;;5060907;28;20186;-79
2023/09/07 01:40:45;;;;;;;9.73;3.47;;;16.20;99.90;;;;;;5061479;28;20192;-79
2023/09/07 01:43:10;;;;;;;3.67;3.10;;;16.20;99.90;;;;;;5060044;28;20192;-79
2023/09/07 01:45:36;;;;;;;9.20;3.63;;;16.10;99.90;;;;;;5062577;28;20277;-79
2023/09/07 01:48:03;;;;;;;5.20;3.77;;;16.10;99.90;;;;;;5065058;28;20176;-79
2023/09/07 01:50:28;;;;;;;6.30;3.57;;;16.10;99.90;;;;;;5067253;28;20192;-79
2023/09/07 01:52:54;;;;;;;5.13;4.10;;;16.10;99.90;;;;;;5061953;28;20230;-79
2023/09/07 01:55:19;;;;;;;6.97;3.47;;;16.00;99.90;;;;;;5060801;28;20222;-79
2023/09/07 01:57:45;;;;;;;4.43;3.23;;;16.00;99.90;;;;;;5061976;28;20163;-79
2023/09/07 02:00:12;;;;;;;6.87;3.40;;;15.90;99.90;;;;;;5059945;28;20172;-79
2023/09/07 02:02:37;;;;;;;7.27;3.17;;;15.90;99.90;;;;;;5062391;28;20187;-79
2023/09/07 02:05:04;;;;;;;10.20;3.63;;;15.90;99.90;;;;;;5062510;28;20167;-79
2023/09/07 02:07:29;;;;;;;8.87;3.60;;;15.90;99.90;;;;;;5061159;28;20180;-79
2023/09/07 02:09:55;;;;;;;4.93;3.10;;;15.90;99.90;;;;;;5060928;28;20175;-80
2023/09/07 02:12:20;;;;;;;4.73;3.47;;;15.80;99.90;;;;;;5061898;28;20199;-79
2023/09/07 02:14:46;;;;;;;5.73;3.13;;;15.80;99.90;;;;;;5062353;28;20168;-79
2023/09/07 02:17:17;;;;;;;8.60;3.40;;;15.70;99.90;;;;;;5061889;28;20201;-79
2023/09/07 02:19:43;;;;;;;3.50;2.97;;;15.70;99.90;;;;;;5061606;28;20263;-79
2023/09/07 02:22:09;;;;;;;8.20;3.87;;;15.70;99.90;;;;;;5062798;28;20198;-79
2023/09/07 02:24:34;;;;;;;7.50;3.23;;;15.70;99.90;;;;;;5061624;28;20180;-79
2023/09/07 02:27:00;;;;;;;6.13;3.50;;;15.70;99.90;;;;;;5063521;28;20178;-80
2023/09/07 02:29:26;;;;;;;6.10;3.47;;;15.60;99.90;;;;;;5062883;28;20217;-79
2023/09/07 02:31:52;;;;;;;5.33;3.43;;;15.60;99.90;;;;;;5063233;28;20204;-79
2023/09/07 02:34:17;;;;;;;5.83;3.73;;;15.60;99.90;;;;;;5061370;28;20176;-78
2023/09/07 02:36:43;;;;;;;5.60;3.90;;;15.60;99.90;;;;;;5062203;28;20168;-79
2023/09/07 02:39:09;;;;;;;8.97;3.63;;;15.60;99.90;;;;;;5062805;28;20187;-79
2023/09/07 02:41:35;;;;;;;12.80;3.40;;;15.50;99.90;;;;;;5062647;28;20190;-79
2023/09/07 02:44:00;;;;;;;5.70;3.40;;;15.50;99.90;;;;;;5062979;28;20189;-79
2023/09/07 02:46:26;;;;;;;6.77;3.30;;;15.50;99.90;;;;;;5063355;28;20263;-79
2023/09/07 02:48:54;;;;;;;4.17;3.20;;;15.50;99.90;;;;;;5062074;28;20179;-79
2023/09/07 02:51:19;;;;;;;5.53;3.27;;;15.40;99.90;;;;;;5062157;28;20171;-79
2023/09/07 02:53:45;;;;;;;7.43;3.43;;;15.40;99.90;;;;;;5061799;28;20651;-79
2023/09/07 02:56:11;;;;;;;9.43;3.27;;;15.40;99.90;;;;;;5062015;28;20178;-79
2023/09/07 02:58:37;;;;;;;6.90;3.43;;;15.30;99.90;;;;;;5061747;28;20227;-79
2023/09/07 03:01:08;;;;;;;6.23;3.23;;;15.40;99.90;;;;;;5062393;28;20174;-79
2023/09/07 03:03:34;;;;;;;7.13;3.17;;;15.40;99.90;;;;;;5061310;28;20229;-79
2023/09/07 03:06:08;;;;;;;4.47;3.10;;;15.30;99.90;;;;;;5062419;28;20190;-79
2023/09/07 03:08:34;;;;;;;9.33;3.60;;;15.40;99.90;;;;;;5062043;28;20164;-79
2023/09/07 03:11:04;;;;;;;8.60;3.70;;;15.30;99.90;;;;;;5062215;28;20168;-79
2023/09/07 03:13:30;;;;;;;10.50;3.80;;;15.20;99.90;;;;;;5062315;28;20210;-79
2023/09/07 03:15:55;;;;;;;8.13;3.43;;;15.20;99.90;;;;;;5062949;28;20184;-79
2023/09/07 03:18:21;;;;;;;6.70;3.37;;;15.20;99.90;;;;;;5060975;28;20172;-79
2023/09/07 03:20:47;;;;;;;5.33;3.30;;;15.20;99.90;;;;;;5062290;28;20179;-79
2023/09/07 03:23:12;;;;;;;6.03;3.40;;;15.10;99.90;;;;;;5061795;28;20206;-79
2023/09/07 03:25:38;;;;;;;5.63;3.33;;;15.20;99.90;;;;;;5061637;28;20180;-79
2023/09/07 03:28:04;;;;;;;7.83;3.23;;;15.10;99.90;;;;;;5064013;28;20175;-79
2023/09/07 03:30:29;;;;;;;5.43;2.70;;;15.10;99.90;;;;;;5061345;28;20606;-80
2023/09/07 03:32:55;;;;;;;5.03;3.40;;;15.10;99.90;;;;;;5063648;28;20207;-79
2023/09/07 03:35:20;;;;;;;9.80;2.83;;;15.10;99.90;;;;;;5061133;28;20251;-79
2023/09/07 03:37:47;;;;;;;6.77;3.37;;;15.00;99.90;;;;;;5061548;28;20176;-79
2023/09/07 03:40:12;;;;;;;8.17;4.03;;;15.00;99.90;;;;;;5063600;28;20222;-79
2023/09/07 03:42:39;;;;;;;6.57;3.20;;;15.00;99.90;;;;;;5061112;28;20610;-79
2023/09/07 03:45:05;;;;;;;6.77;3.43;;;15.00;99.90;;;;;;5062998;28;20178;-79
2023/09/07 03:47:30;;;;;;;5.60;3.60;;;15.00;99.90;;;;;;5063513;28;20689;-79
2023/09/07 03:49:58;;;;;;;8.17;3.97;;;14.90;99.90;;;;;;5062420;28;20180;-79
2023/09/07 03:52:26;;;;;;;8.30;3.93;;;14.90;99.90;;;;;;5062550;28;20214;-79
2023/09/07 03:54:53;;;;;;;5.53;3.10;;;14.90;99.90;;;;;;5067082;28;20167;-79
2023/09/07 03:57:19;;;;;;;9.60;3.40;;;14.90;99.90;;;;;;5071692;28;20278;-78
2023/09/07 03:59:46;;;;;;;6.27;3.50;;;14.80;99.90;;;;;;5072012;28;20239;-79
2023/09/07 04:02:12;;;;;;;6.23;3.67;;;14.90;99.90;;;;;;5060822;28;20694;-79
2023/09/07 04:04:38;;;;;;;7.00;3.70;;;14.80;99.90;;;;;;5060393;28;20201;-79
2023/09/07 04:07:03;;;;;;;5.43;3.77;;;14.70;99.90;;;;;;5062023;28;20195;-79
2023/09/07 04:09:29;;;;;;;6.23;3.67;;;14.80;99.90;;;;;;5061344;28;20175;-79
2023/09/07 04:11:55;;;;;;;6.70;3.53;;;14.70;99.90;;;;;;5060600;28;20215;-79
2023/09/07 04:14:20;;;;;;;6.17;4.10;;;14.70;99.90;;;;;;5061604;28;20171;-79
2023/09/07 04:16:46;;;;;;;7.33;3.73;;;14.70;99.90;;;;;;5062094;28;20206;-79
2023/09/07 04:19:11;;;;;;;4.23;3.80;;;14.70;99.90;;;;;;5061786;28;20172;-79
2023/09/07 04:21:38;;;;;;;8.13;3.27;;;14.70;99.90;;;;;;5060712;28;20225;-79
2023/09/07 04:24:04;;;;;;;11.27;3.70;;;14.70;99.90;;;;;;5061630;28;20183;-79
2023/09/07 04:26:30;;;;;;;4.43;3.30;;;14.60;99.90;;;;;;5059406;28;20191;-79
2023/09/07 04:28:55;;;;;;;5.47;3.20;;;14.70;99.90;;;;;;5061998;28;20183;-79
2023/09/07 04:31:21;;;;;;;7.67;3.70;;;14.60;99.90;;;;;;5059613;28;20214;-79
2023/09/07 04:33:47;;;;;;;4.87;3.40;;;14.70;99.90;;;;;;5058127;28;20172;-80
2023/09/07 04:36:15;;;;;;;4.10;2.97;;;14.60;99.90;;;;;;5060783;28;20648;-80
2023/09/07 04:38:41;;;;;;;7.30;3.13;;;14.60;99.90;;;;;;5061580;28;20175;-80
2023/09/07 04:41:08;;;;;;;6.57;4.13;;;14.50;99.90;;;;;;5061066;28;20533;-79
2023/09/07 04:43:34;;;;;;;10.30;3.50;;;14.50;99.90;;;;;;5062083;28;20187;-82
2023/09/07 04:46:00;;;;;;;6.37;3.23;;;14.50;99.90;;;;;;5064659;28;20511;-79
2023/09/07 04:48:25;;;;;;;7.93;3.27;;;14.50;99.90;;;;;;5060233;28;20240;-82
2023/09/07 04:51:05;;;;;;;7.63;3.27;;;14.40;99.90;;;;;;5053682;28;20555;-82
2023/09/07 04:53:32;;;;;;;6.03;3.63;;;14.40;99.90;;;;;;5056173;28;20222;-81
2023/09/07 04:55:59;;;;;;;12.13;3.70;;;14.40;99.90;;;;;;5053804;28;20178;-84
2023/09/07 04:58:28;;;;;;;7.33;3.33;;;14.40;99.90;;;;;;5054218;28;20187;-82
2023/09/07 05:00:59;;;;;;;5.27;3.33;;;14.40;99.90;;;;;;5053787;28;20202;-81
2023/09/07 05:03:28;;;;;;;9.10;3.53;;;14.50;99.90;;;;;;5053902;28;20310;-83
2023/09/07 05:06:13;;;;;;;8.80;3.40;;;14.60;99.90;;;;;;5054441;28;20179;-80
2023/09/07 05:08:45;;;;;;;10.67;3.27;;;14.40;99.90;;;;;;5054606;28;20191;-82
2023/09/07 05:11:18;;;;;;;6.80;3.30;;;14.50;99.90;;;;;;5054275;28;20206;-83
2023/09/07 05:13:55;;;;;;;6.10;3.00;;;15.00;99.90;;;;;;5055162;28;20183;-83
2023/09/07 05:16:24;;;;;;;5.23;3.50;;;14.30;99.90;;;;;;5057424;28;20159;-81
2023/09/07 05:18:49;;;;;;;6.97;3.20;;;14.70;99.90;;;;;;5057294;28;20179;-80
2023/09/07 05:21:15;;;;;;;7.17;3.00;;;14.30;99.90;;;;;;5059056;28;20198;-81
2023/09/07 05:23:41;;;;;;;4.03;2.83;;;15.30;99.90;;;;;;5062407;28;20180;-81
2023/09/07 05:26:07;;;;;;;6.67;2.87;;;14.30;99.90;;;;;;5062692;28;20195;-81
2023/09/07 05:28:33;;;;;;;4.83;2.83;;;14.20;99.90;;;;;;5060952;28;20187;-81
2023/09/07 05:30:58;;;;;;;5.73;3.20;;;14.40;99.90;;;;;;5060889;28;20563;-81
2023/09/07 05:33:24;;;;;;;6.63;3.10;;;14.80;99.90;;;;;;5060834;28;20261;-80
2023/09/07 05:35:49;;;;;;;6.77;3.10;;;14.20;99.90;;;;;;5059623;28;20256;-80
2023/09/07 05:38:15;;;;;;;4.70;3.07;;;14.30;99.90;;;;;;5059329;28;20180;-81
2023/09/07 05:40:43;;;;;;;6.53;3.20;;;14.30;99.90;;;;;;5058360;28;20226;-81
2023/09/07 05:43:09;;;;;;;9.97;3.83;;;14.30;99.90;;;;;;5055009;28;20208;-81
2023/09/07 05:45:41;;;;;;;5.87;3.40;;;14.20;99.90;;;;;;5061175;28;20247;-80
2023/09/07 05:48:08;;;;;;;5.83;3.40;;;14.30;99.90;;;;;;5061086;28;20198;-80
2023/09/07 05:50:35;;;;;;;5.27;2.90;;;14.20;99.90;;;;;;5041760;28;20180;-80
2023/09/07 05:53:02;;;;;;;3.93;3.00;;;14.20;99.90;;;;;;5042884;28;20679;-80
2023/09/07 05:55:27;;;;;;;6.33;3.27;;;14.20;99.90;;;;;;5043560;28;20175;-80
2023/09/07 05:57:54;;;;;;;7.17;3.40;;;14.20;99.90;;;;;;5052040;28;20551;-80
2023/09/07 06:00:20;;;;;;;6.97;3.50;;;14.30;99.90;;;;;;5058932;28;20271;-80
2023/09/07 06:02:46;;;;;;;4.33;3.43;;;14.20;99.90;;;;;;5061247;28;20722;-80
2023/09/07 06:05:11;;;;;;;3.50;2.93;;;14.30;99.90;;;;;;5059977;28;20202;-80
2023/09/07 06:07:37;;;;;;;8.63;3.73;;;14.30;99.90;;;;;;5042694;28;20590;-80
2023/09/07 06:10:05;;;;;;;4.30;3.40;;;14.30;99.90;;;;;;5038023;28;20183;-80
2023/09/07 06:12:31;;;;;;;6.33;3.47;;;14.30;99.90;;;;;;5037998;28;20223;-78
2023/09/07 06:14:56;;;;;;;7.17;3.90;;;14.30;99.90;;;;;;5039358;28;20192;-80
2023/09/07 06:17:22;;;;;;;6.80;4.13;;;14.40;99.90;;;;;;5043990;28;20173;-80
2023/09/07 06:19:47;;;;;;;4.97;4.03;;;14.40;99.90;;;;;;5056702;28;20259;-80
2023/09/07 06:22:13;;;;;;;5.37;3.77;;;14.60;99.90;;;;;;5056159;28;20221;-80
2023/09/07 06:24:39;;;;;;;5.17;3.83;;;14.50;99.90;;;;;;5040033;28;20188;-80
2023/09/07 06:27:04;;;;;;;6.23;4.47;;;14.50;99.90;;;;;;5040619;28;20207;-79
2023/09/07 06:29:30;;;;;;;6.77;3.90;;;14.60;99.90;;;;;;5039730;28;20223;-79
2023/09/07 06:31:55;;;;;;;5.53;4.00;;;14.60;99.90;;;;;;5038296;28;20238;-79
2023/09/07 06:34:21;;;;;;;7.67;4.23;;;14.60;99.90;;;;;;5042428;28;20192;-80
2023/09/07 06:36:46;;;;;;;10.10;4.07;;;14.70;99.90;;;;;;5059359;28;20180;-80
2023/09/07 06:39:15;;;;;;;7.43;4.57;;;14.80;99.90;;;;;;5036535;28;20187;-81
2023/09/07 06:41:48;;;;;;;4.13;3.67;;;14.80;99.90;;;;;;5034950;28;20208;-81
2023/09/07 06:44:17;;;;;;;6.70;4.10;;;14.90;99.90;;;;;;5036783;28;20171;-81
2023/09/07 06:46:42;;;;;;;6.83;4.40;;;14.90;99.90;;;;;;5035423;28;20721;-80
2023/09/07 06:49:08;;;;;;;9.23;4.00;;;15.70;99.90;;;;;;5035489;28;20267;-80
2023/09/07 06:51:39;;;;;;;4.47;3.80;;;15.00;99.90;;;;;;5038226;28;20247;-82
2023/09/07 06:54:08;;;;;;;5.57;4.17;;;15.10;99.90;;;;;;5054359;28;20215;-82
2023/09/07 06:56:34;;;;;;;8.60;4.00;;;15.10;99.90;;;;;;5044453;28;20648;-81
2023/09/07 06:59:02;;;;;;;5.03;3.90;;;15.10;99.90;;;;;;5059992;28;20223;-81
2023/09/07 07:01:33;;;;;;;6.80;4.23;;;14.90;99.90;;;;;;5054810;28;20195;-80
2023/09/07 07:03:59;;;;;;;5.17;3.83;;;15.10;99.90;;;;;;5047500;28;20176;-83
2023/09/07 07:06:32;;;;;;;5.73;4.03;;;15.20;99.90;;;;;;5040852;28;20210;-82
2023/09/07 07:08:58;;;;;;;5.97;4.00;;;15.20;99.90;;;;;;5058007;28;20175;-81
2023/09/07 07:11:23;;;;;;;5.33;4.50;;;15.60;99.90;;;;;;5063379;28;20175;-82
2023/09/07 07:13:49;;;;;;;5.93;4.20;;;15.60;99.90;;;;;;5061391;28;20221;-81
2023/09/07 07:16:27;;;;;;;7.73;4.60;;;15.70;99.90;;;;;;5061011;28;20180;-82
2023/09/07 07:18:52;;;;;;;4.70;4.13;;;16.00;99.90;;;;;;5061781;28;20171;-81
2023/09/07 07:21:21;;;;;;;4.90;4.40;;;15.70;99.90;;;;;;5062141;28;20235;-81
2023/09/07 07:23:50;;;;;;;10.57;4.80;;;15.80;99.90;;;;;;5060538;28;20180;-81
2023/09/07 07:26:18;;;;;;;7.33;4.70;;;15.90;99.90;;;;;;5062366;28;20171;-81
2023/09/07 07:28:46;;;;;;;5.50;4.40;;;16.30;99.90;;;;;;5060678;28;20172;-81
2023/09/07 07:31:12;;;;;;;7.27;5.20;;;16.30;99.90;;;;;;5057929;28;20187;-81
2023/09/07 07:33:38;;;;;;;7.83;5.83;;;16.50;99.90;;;;;;5054556;28;20249;-81
2023/09/07 07:36:04;;;;;;;6.97;6.23;;;16.40;99.90;;;;;;5056308;28;20172;-81
2023/09/07 07:38:30;;;;;;;8.80;6.07;;;16.50;99.90;;;;;;5055997;28;20241;-81
2023/09/07 07:40:55;;;;;;;8.37;5.70;;;16.60;99.90;;;;;;5056057;28;20177;-81
2023/09/07 07:43:22;;;;;;;5.97;5.37;;;16.80;99.90;;;;;;5054267;28;20245;-81
2023/09/07 07:45:47;;;;;;;8.17;6.27;;;16.90;99.90;;;;;;5055284;28;20258;-81
2023/09/07 07:48:13;;;;;;;8.53;6.20;;;17.00;99.90;;;;;;5054213;28;20206;-81
2023/09/07 07:50:39;;;;;;;8.73;6.47;;;17.10;99.90;;;;;;5053089;28;20176;-81
2023/09/07 07:53:06;;;;;;;8.53;6.03;;;17.30;99.90;;;;;;5053909;28;20298;-81
2023/09/07 07:55:38;;;;;;;11.90;6.47;;;17.30;99.90;;;;;;5054296;28;20172;-81
2023/09/07 07:58:05;;;;;;;7.23;5.50;;;17.50;99.90;;;;;;5055822;28;20156;-81
2023/09/07 08:00:31;;;;;;;8.90;5.57;;;17.70;99.90;;;;;;5055324;28;20164;-81
2023/09/07 08:02:56;;;;;;;9.70;5.87;;;17.80;99.90;;;;;;5055302;28;20202;-81
2023/09/07 08:05:22;;;;;;;10.00;5.37;;;17.90;99.90;;;;;;5055626;28;20193;-81
2023/09/07 08:07:48;;;;;;;10.37;4.60;;;18.10;99.90;;;;;;5054655;28;20171;-81
2023/09/07 08:10:14;;;;;;;6.33;4.63;;;18.30;99.90;;;;;;5056772;28;20172;-81
2023/09/07 08:12:44;;;;;;;9.77;4.77;;;18.40;99.90;;;;;;5062958;28;20210;-80
2023/09/07 08:15:09;;;;;;;9.63;5.17;;;18.60;99.90;;;;;;5069962;28;20160;-81
2023/09/07 08:17:41;;;;;;;10.70;4.57;;;18.70;99.90;;;;;;5061565;28;20175;-82
2023/09/07 08:20:19;;;;;;;5.40;4.57;;;18.90;99.90;;;;;;5059125;28;20155;-82
2023/09/07 08:22:53;;;;;;;6.30;3.93;;;19.00;99.90;;;;;;5056774;28;20218;-82
2023/09/07 08:25:39;;;;;;;4.67;4.17;;;19.10;99.90;;;;;;5058794;28;20178;-82
2023/09/07 08:28:11;;;;;;;5.70;4.47;;;19.30;99.90;;;;;;5058260;28;20178;-82
2023/09/07 08:30:52;;;;;;;6.17;4.33;;;19.30;99.90;;;;;;5057014;28;20194;-81
2023/09/07 08:33:28;;;;;;;9.70;3.80;;;19.50;99.90;;;;;;5057134;28;20678;-81
2023/09/07 08:36:01;;;;;;;7.47;3.67;;;19.70;99.90;;;;;;5058124;28;20167;-82
2023/09/07 08:38:30;;;;;;;6.17;3.70;;;19.80;99.90;;;;;;5055071;28;20171;-82
2023/09/07 08:41:05;;;;;;;8.80;4.03;;;20.00;99.90;;;;;;5054091;28;20262;-81
2023/09/07 08:43:34;;;;;;;4.63;3.10;;;20.10;99.90;;;;;;5054155;28;20666;-81
2023/09/07 08:46:21;;;;;;;4.13;3.37;;;20.30;99.90;;;;;;5055320;28;20183;-82
2023/09/07 08:48:55;;;;;;;8.00;3.20;;;20.40;99.90;;;;;;5054949;28;20639;-81
2023/09/07 08:51:23;;;;;;;4.30;3.37;;;20.40;99.90;;;;;;5054926;28;20554;-81
2023/09/07 08:53:58;;;;;;;5.67;3.27;;;20.60;99.90;;;;;;5055500;28;20241;-81
2023/09/07 08:56:34;;;;;;;6.20;3.50;;;20.70;99.90;;;;;;5054745;28;20549;-82
2023/09/07 08:59:26;;;;;;;4.97;3.23;;;20.80;99.90;;;;;;5054499;28;20184;-82
2023/09/07 09:01:58;;;;;;;4.07;2.90;;;21.00;99.90;;;;;;5054694;28;20217;-82
2023/09/07 09:04:32;;;;;;;4.13;2.67;;;21.10;99.90;;;;;;5056142;28;20183;-80
2023/09/07 09:06:58;;;;;;;4.93;2.80;;;21.10;99.90;;;;;;5056043;28;20175;-82
2023/09/07 09:09:25;;;;;;;4.10;3.30;;;21.50;99.90;;;;;;5056459;28;20213;-82
2023/09/07 09:11:51;;;;;;;3.60;3.13;;;21.20;99.90;;;;;;5061056;28;20199;-82
2023/09/07 09:14:18;;;;;;;4.13;2.80;;;21.70;99.90;;;;;;5070961;28;20198;-81
2023/09/07 09:16:49;;;;;;;4.77;2.97;;;21.40;1.00;;;;;;5065650;28;20176;-82
2023/09/07 09:19:15;;;;;;;6.83;3.20;;;21.50;1.00;;;;;;5069539;28;20172;-81
2023/09/07 09:21:40;;;;;;;5.47;2.80;;;21.60;1.00;;;;;;5072588;28;20199;-80
2023/09/07 09:24:10;;;;;;;4.40;3.57;;;22.60;1.00;;;;;;5072699;28;20175;-81
2023/09/07 09:26:37;;;;;;;4.20;3.20;;;21.80;1.00;;;;;;5071816;28;20555;-81
2023/09/07 09:29:03;;;;;;;3.93;2.73;;;22.00;1.00;;;;;;5071917;28;20183;-81
2023/09/07 09:31:30;;;;;;;5.20;3.17;;;22.00;1.00;;;;;;5072178;28;20262;-80
2023/09/07 09:33:55;;;;;;;5.90;3.33;;;22.10;1.00;;;;;;5065613;28;20175;-82
2023/09/07 09:36:21;;;;;;;3.63;3.13;;;22.30;1.00;;;;;;5055623;28;20618;-82
2023/09/07 09:38:53;;;;;;;5.43;3.57;;;22.20;1.00;;;;;;5055093;28;20164;-82
2023/09/07 09:41:20;;;;;;;3.67;2.90;;;22.40;1.00;;;;;;5054852;28;20180;-82
2023/09/07 09:43:51;;;;;;;4.40;3.10;;;22.50;1.00;;;;;;5055573;28;20164;-82
2023/09/07 09:46:17;;;;;;;4.17;3.23;;;22.60;99.90;;;;;;5055666;28;20156;-83
2023/09/07 09:48:44;;;;;;;5.37;3.20;;;22.70;1.00;;;;;;5055863;28;20172;-83
2023/09/07 09:51:11;;;;;;;4.33;3.13;;;22.70;1.00;;;;;;5054017;28;20176;-82
2023/09/07 09:53:36;;;;;;;4.20;3.00;;;22.80;99.90;;;;;;5055458;28;20199;-83
2023/09/07 09:56:02;;;;;;;3.60;3.17;;;23.00;99.90;;;;;;5055621;28;20694;-83
2023/09/07 09:58:28;;;;;;;4.07;3.17;;;23.00;99.90;;;;;;5056270;28;20246;-83
2023/09/07 10:00:56;;;;;;;5.97;3.10;;;23.10;99.90;;;;;;5054231;28;20180;-83
2023/09/07 10:03:34;;;;;;;3.37;2.87;;;23.20;99.90;;;;;;5054639;28;20663;-82
2023/09/07 10:06:09;;;;;;;5.57;2.97;;;23.30;99.90;;;;;;5054762;28;20164;-83
2023/09/07 10:08:35;;;;;;;3.27;2.60;;;23.40;99.90;;;;;;5056136;28;20179;-83
2023/09/07 10:11:09;;;;;;;9.10;3.23;;;23.60;99.90;;;;;;5058780;28;20194;-83
2023/09/07 10:13:35;;;;;;;4.47;3.00;;;23.60;99.90;;;;;;5058745;28;20206;-83
2023/09/07 10:16:08;;;;;;;5.80;3.13;;;23.80;99.90;;;;;;5057901;28;20180;-82
2023/09/07 10:18:38;;;;;;;3.77;2.80;;;23.70;99.90;;;;;;5062899;28;20159;-82
2023/09/07 10:21:04;;;;;;;7.87;2.90;;;23.90;99.90;;;;;;5070729;28;20218;-81
2023/09/07 10:23:36;;;;;;;3.17;2.73;;;24.10;99.90;;;;;;5063608;28;20199;-82
2023/09/07 10:26:06;;;;;;;6.00;3.27;;;24.00;99.90;;;;;;5057155;28;20286;-81
2023/09/07 10:28:32;;;;;;;3.43;2.80;;;24.10;99.90;;;;;;5057799;28;20678;-82
2023/09/07 10:31:05;;;;;;;4.22;3.33;;;24.10;99.90;;;;;;5058018;28;20184;-81
2023/09/07 10:33:33;;;;;;;4.67;2.70;;;24.20;99.90;;;;;;5057032;28;20553;-82
2023/09/07 10:35:59;;;;;;;4.10;3.00;;;24.20;99.90;;;;;;5058960;28;20226;-82
2023/09/07 10:38:26;;;;;;;6.27;2.90;;;24.30;99.90;;;;;;5057301;28;20175;-82
2023/09/07 10:41:00;;;;;;;5.72;2.90;;;24.40;99.90;;;;;;5058594;28;20176;-81
2023/09/07 10:43:27;;;;;;;6.50;3.03;;;24.50;98.00;;;;;;5057869;28;20736;-81
2023/09/07 10:45:54;;;;;;;3.58;3.00;;;24.50;99.90;;;;;;5056909;28;20179;-81
2023/09/07 10:48:20;;;;;;;4.07;2.95;;;24.60;99.90;;;;;;5058524;28;20780;-82
2023/09/07 10:50:47;;;;;;;7.65;3.13;;;24.60;99.90;;;;;;5058170;28;20175;-84
2023/09/07 10:53:14;;;;;;;3.60;2.77;;;24.60;99.90;;;;;;5057644;28;20199;-84
2023/09/07 10:55:40;;;;;;;4.00;2.67;;;24.70;99.90;;;;;;5056430;28;20596;-83
2023/09/07 10:58:08;;;;;;;5.82;2.85;;;24.80;99.90;;;;;;5057796;28;20163;-84
2023/09/07 11:00:34;;;;;;;5.53;2.50;;;24.90;99.90;;;;;;5055577;28;20168;-83
2023/09/07 11:03:07;;;;;;;3.20;2.85;;;25.10;99.90;;;;;;5056462;28;20191;-84
2023/09/07 11:05:34;;;;;;;4.45;2.63;;;25.10;67.20;;;;;;5056036;28;20171;-83
2023/09/07 11:08:00;;;;;;;4.40;2.70;;;25.20;26.70;;;;;;5056423;28;20183;-83
2023/09/07 11:10:26;;;;;;;5.95;2.70;;;25.20;1.00;;;;;;5055661;28;20186;-82
2023/09/07 11:12:52;;;;;;;3.42;2.63;;;25.40;1.00;;;;;;5052104;28;20199;-83
2023/09/07 11:15:19;;;;;;;9.95;2.70;;;25.40;1.00;;;;;;5035991;28;20551;-83
2023/09/07 11:17:45;;;;;;;3.22;2.92;;;25.50;7.20;;;;;;5035809;28;20636;-84
2023/09/07 11:20:11;;;;;;;3.78;2.58;;;25.50;22.30;;;;;;5051636;28;20172;-84
2023/09/07 11:22:40;;;;;;;4.10;2.85;;;25.70;1.00;;;;;;5057100;28;20697;-83
2023/09/07 11:25:06;;;;;;;4.30;2.92;;;25.60;1.00;;;;;;5042629;28;20208;-83
2023/09/07 11:27:32;;;;;;;3.50;2.78;;;25.80;1.00;;;;;;5037198;28;20175;-81
2023/09/07 11:30:00;;;;;;;6.07;2.50;;;25.90;1.00;;;;;;5035898;28;20188;-86
2023/09/07 11:32:34;;;;;;;5.82;2.78;;;25.70;1.00;;;;;;5037150;28;20635;-86
2023/09/07 11:34:59;;;;;;;5.32;2.75;;;26.00;4.80;;;;;;5036735;28;20176;-86
2023/09/07 11:37:25;;;;;;;5.40;2.97;;;26.00;11.00;;;;;;5038205;28;20185;-87
2023/09/07 11:39:51;;;;;;;5.72;2.65;;;26.10;1.00;;;;;;5037538;28;20184;-86
2023/09/07 11:42:17;;;;;;;5.85;2.72;;;26.40;1.00;;;;;;5035831;28;20192;-86
2023/09/07 11:44:42;;;;;;;3.95;2.58;;;26.30;1.00;;;;;;5037941;28;20215;-86
2023/09/07 11:47:08;;;;;;;6.03;2.70;;;26.30;1.00;;;;;;5036117;28;20188;-84
2023/09/07 11:49:34;;;;;;;4.72;2.70;;;26.40;1.00;;;;;;5034960;28;20191;-84
2023/09/07 11:51:59;;;;;;;4.00;2.40;;;26.40;1.00;;;;;;5034969;28;20216;-84
2023/09/07 11:54:25;;;;;;;5.45;2.67;;;26.40;1.00;;;;;;5035134;28;20299;-84
2023/09/07 11:56:51;;;;;;;3.20;2.60;;;26.50;1.00;;;;;;5035795;28;20172;-84
2023/09/07 11:59:19;;;;;;;5.72;2.53;;;26.60;1.00;;;;;;5035539;28;20311;-86
2023/09/07 12:01:45;;;;;;;4.13;2.45;;;26.60;1.00;;;;;;5037876;28;20663;-85
2023/09/07 12:04:10;;;;;;;2.60;2.40;;;26.60;1.00;;;;;;5035954;28;20188;-85
2023/09/07 12:06:36;;;;;;;4.40;2.60;;;26.80;1.00;;;;;;5036673;28;20168;-85
2023/09/07 12:09:06;;;;;;;2.58;2.35;;;26.90;1.00;;;;;;5043947;28;20188;-84
2023/09/07 12:11:32;;;;;;;4.53;2.58;;;27.00;1.00;;;;;;5055892;28;20184;-83
2023/09/07 12:13:58;;;;;;;4.32;2.60;;;26.90;1.00;;;;;;5056550;28;20267;-86
2023/09/07 12:16:26;;;;;;;3.50;2.50;;;26.90;1.00;;;;;;5056704;28;20199;-86
2023/09/07 12:18:51;;;;;;;3.47;2.53;;;27.00;99.90;;;;;;5048736;28;20298;-86
2023/09/07 12:21:17;;;;;;;5.25;2.50;;;27.00;99.90;;;;;;5037139;28;20184;-85
2023/09/07 12:23:43;;;;;;;2.80;2.47;;;27.30;99.90;;;;;;5035560;28;20180;-84
2023/09/07 12:26:08;;;;;;;5.05;2.70;;;27.20;1.00;;;;;;5035772;28;20230;-86
2023/09/07 12:28:34;;;;;;;5.93;2.75;;;27.20;99.90;;;;;;5035533;28;20192;-83
2023/09/07 12:31:00;;;;;;;3.63;2.17;;;27.20;1.00;;;;;;5036612;28;20184;-86
2023/09/07 12:33:25;;;;;;;3.22;2.45;;;27.20;99.90;;;;;;5035884;28;20227;-85
2023/09/07 12:35:51;;;;;;;2.85;2.42;;;27.50;1.00;;;;;;5035739;28;20640;-86
2023/09/07 12:38:22;;;;;;;11.30;3.05;;;27.30;99.90;;;;;;5036994;28;20257;-83
2023/09/07 12:40:47;;;;;;;3.80;2.90;;;27.40;99.90;;;;;;5036389;28;20591;-85
2023/09/07 12:43:13;;;;;;;4.60;2.47;;;27.50;1.00;;;;;;5035775;28;20237;-84
2023/09/07 12:45:39;;;;;;;5.05;2.78;;;27.60;1.00;;;;;;5037282;28;20195;-83
2023/09/07 12:48:06;;;;;;;3.05;2.72;;;27.70;1.00;;;;;;5039558;28;20200;-86